createdAt,value
2022-12-06T00:00:42.205Z,21.67
2022-12-06T00:03:08.537Z,27.77
2022-12-06T00:05:34.872Z,25.77
2022-12-06T00:08:01.317Z,18.73
2022-12-06T00:10:27.680Z,21.38
2022-12-06T00:12:53.962Z,18.02
2022-12-06T00:15:20.268Z,20.40
2022-12-06T00:17:46.665Z,20.67
2022-12-06T00:20:13.005Z,18.02
2022-12-06T00:22:43.645Z,21.17
2022-12-06T00:25:10.016Z,27.35
2022-12-06T00:27:36.361Z,15.68
2022-12-06T00:30:03.100Z,22.05
2022-12-06T00:32:29.481Z,18.45
2022-12-06T00:34:55.813Z,17.25
2022-12-06T00:37:22.115Z,17.88
2022-12-06T00:39:48.436Z,17.77
2022-12-06T00:42:14.761Z,20.35
2022-12-06T00:44:41.082Z,20.08
2022-12-06T00:47:07.370Z,18.10
2022-12-06T00:49:33.695Z,22.65
2022-12-06T00:51:59.997Z,21.35
2022-12-06T00:54:26.297Z,16.60
2022-12-06T00:56:52.593Z,17.00
2022-12-06T00:59:18.888Z,21.13
2022-12-06T01:01:45.293Z,20.95
2022-12-06T01:04:11.618Z,19.58
2022-12-06T01:06:38.211Z,22.75
2022-12-06T01:09:08.981Z,21.50
2022-12-06T01:11:35.414Z,25.65
2022-12-06T01:14:01.797Z,25.02
2022-12-06T01:16:29.570Z,25.63
2022-12-06T01:18:57.493Z,23.67
2022-12-06T01:21:24.895Z,21.70
2022-12-06T01:23:54.445Z,24.95
2022-12-06T01:26:25.347Z,24.83
2022-12-06T01:28:51.871Z,22.23
2022-12-06T01:31:18.293Z,24.42
2022-12-06T01:33:44.866Z,23.20
2022-12-06T01:36:17.914Z,20.50
2022-12-06T01:38:44.288Z,26.15
2022-12-06T01:41:10.573Z,20.83
2022-12-06T01:43:38.953Z,20.70
2022-12-06T01:46:10.851Z,24.85
2022-12-06T01:48:37.587Z,22.30
2022-12-06T01:51:05.997Z,28.48
2022-12-06T01:53:32.862Z,30.30
2022-12-06T01:55:59.498Z,22.35
2022-12-06T01:58:28.788Z,21.67
2022-12-06T02:00:55.539Z,24.50
2022-12-06T02:03:23.598Z,26.60
2022-12-06T02:05:49.874Z,24.42
2022-12-06T02:08:16.527Z,26.50
2022-12-06T02:10:42.845Z,20.30
2022-12-06T02:13:09.180Z,24.27
2022-12-06T02:16:01.667Z,25.85
2022-12-06T02:18:31.031Z,25.02
2022-12-06T02:21:03.401Z,22.38
2022-12-06T02:23:46.401Z,25.17
2022-12-06T02:26:12.692Z,26.25
2022-12-06T02:28:57.790Z,27.58
2022-12-06T02:31:27.268Z,27.48
2022-12-06T02:33:59.426Z,24.20
2022-12-06T02:36:29.292Z,24.23
2022-12-06T02:38:57.976Z,25.50
2022-12-06T02:41:27.139Z,20.63
2022-12-06T02:43:56.633Z,24.27
2022-12-06T02:46:24.062Z,26.30
2022-12-06T02:48:52.051Z,21.75
2022-12-06T02:51:19.624Z,26.02
2022-12-06T02:53:48.048Z,21.55
2022-12-06T02:56:15.910Z,23.13
2022-12-06T02:58:42.198Z,25.65
2022-12-06T03:01:15.985Z,26.63
2022-12-06T03:03:51.402Z,26.00
2022-12-06T03:06:35.023Z,28.88
2022-12-06T03:09:19.585Z,24.05
2022-12-06T03:11:49.572Z,25.92
2022-12-06T03:14:19.983Z,24.95
2022-12-06T03:16:55.412Z,26.27
2022-12-06T03:19:23.073Z,28.50
2022-12-06T03:21:52.978Z,23.00
2022-12-06T03:24:21.357Z,25.38
2022-12-06T03:26:48.440Z,23.63
2022-12-06T03:29:16.113Z,23.77
2022-12-06T03:31:43.074Z,22.45
2022-12-06T03:34:16.396Z,24.42
2022-12-06T03:36:44.696Z,24.85
2022-12-06T03:39:12.880Z,22.15
2022-12-06T03:41:45.508Z,19.92
2022-12-06T03:44:11.797Z,25.48
2022-12-06T03:46:41.131Z,22.00
2022-12-06T03:49:10.209Z,26.98
2022-12-06T03:51:37.299Z,26.60
2022-12-06T03:54:04.694Z,28.20
2022-12-06T03:56:36.701Z,28.23
2022-12-06T03:59:04.087Z,28.60
2022-12-06T04:01:30.434Z,22.05
2022-12-06T04:03:56.936Z,25.45
2022-12-06T04:06:23.264Z,25.70
2022-12-06T04:08:49.823Z,23.42
2022-12-06T04:11:16.181Z,22.00
2022-12-06T04:13:42.556Z,20.50
2022-12-06T04:16:29.198Z,21.52
2022-12-06T04:18:55.919Z,22.63
2022-12-06T04:21:34.022Z,21.67
2022-12-06T04:24:00.428Z,24.25
2022-12-06T04:26:26.769Z,18.70
2022-12-06T04:29:12.432Z,21.50
2022-12-06T04:31:57.711Z,23.98
2022-12-06T04:34:42.913Z,21.58
2022-12-06T04:37:28.170Z,23.15
2022-12-06T04:39:54.557Z,23.92
2022-12-06T04:42:39.564Z,22.25
2022-12-06T04:45:06.527Z,18.30
2022-12-06T04:47:32.803Z,17.67
2022-12-06T04:49:59.341Z,19.33
2022-12-06T04:52:29.037Z,17.17
2022-12-06T04:54:57.634Z,18.50
2022-12-06T04:57:23.926Z,16.27
2022-12-06T04:59:51.074Z,20.42
2022-12-06T05:02:17.480Z,19.77
2022-12-06T05:04:43.804Z,19.20
2022-12-06T05:07:11.674Z,21.90
2022-12-06T05:09:38.205Z,24.08
2022-12-06T05:12:04.690Z,18.65
2022-12-06T05:14:30.981Z,19.00
2022-12-06T05:16:57.310Z,18.15
2022-12-06T05:19:23.635Z,19.50
2022-12-06T05:21:49.912Z,19.90
2022-12-06T05:24:16.208Z,17.77
2022-12-06T05:26:42.519Z,21.52
2022-12-06T05:29:08.809Z,17.50
2022-12-06T05:31:35.134Z,18.60
2022-12-06T05:34:01.505Z,15.25
2022-12-06T05:36:28.076Z,13.98
2022-12-06T05:38:54.617Z,15.57
2022-12-06T05:41:22.863Z,14.07
2022-12-06T05:43:50.175Z,13.93
2022-12-06T05:46:17.075Z,14.93
2022-12-06T05:48:43.417Z,14.73
2022-12-06T05:51:09.742Z,12.25
2022-12-06T05:53:36.090Z,14.05
2022-12-06T05:56:10.409Z,15.25
2022-12-06T05:58:37.122Z,12.52
2022-12-06T06:01:04.436Z,14.98
2022-12-06T06:03:30.858Z,16.83
2022-12-06T06:05:58.488Z,16.25
2022-12-06T06:08:25.111Z,13.73
2022-12-06T06:10:52.178Z,14.93
2022-12-06T06:13:18.455Z,14.70
2022-12-06T06:15:44.730Z,14.43
2022-12-06T06:18:11.047Z,13.65
2022-12-06T06:20:37.365Z,15.07
2022-12-06T06:23:03.656Z,14.25
2022-12-06T06:25:29.942Z,19.08
2022-12-06T06:27:56.231Z,13.15
2022-12-06T06:30:22.551Z,12.48
2022-12-06T06:32:48.909Z,16.10
2022-12-06T06:35:15.281Z,13.00
2022-12-06T06:37:41.559Z,13.85
2022-12-06T06:40:08.140Z,11.35
2022-12-06T06:42:34.447Z,11.75
2022-12-06T06:45:00.725Z,14.63
2022-12-06T06:47:27.050Z,12.75
2022-12-06T06:49:53.322Z,17.67
2022-12-06T06:52:20.067Z,15.45
2022-12-06T06:54:46.448Z,13.10
2022-12-06T06:57:17.549Z,13.65
2022-12-06T06:59:45.278Z,14.13
2022-12-06T07:02:13.037Z,10.50
2022-12-06T07:04:39.505Z,10.73
2022-12-06T07:07:05.874Z,11.02
2022-12-06T07:09:32.487Z,14.02
2022-12-06T07:11:58.767Z,11.57
2022-12-06T07:14:25.037Z,10.68
2022-12-06T07:16:51.445Z,11.77
2022-12-06T07:19:17.832Z,10.75
2022-12-06T07:21:44.128Z,11.73
2022-12-06T07:24:10.412Z,13.45
2022-12-06T07:26:36.719Z,14.50
2022-12-06T07:29:02.994Z,11.50
2022-12-06T07:31:30.496Z,14.15
2022-12-06T07:33:57.961Z,14.85
2022-12-06T07:36:24.877Z,10.30
2022-12-06T07:38:52.586Z,10.82
2022-12-06T07:41:38.547Z,11.60
2022-12-06T07:44:23.794Z,12.65
2022-12-06T07:46:50.267Z,11.45
2022-12-06T07:49:17.115Z,10.05
2022-12-06T07:51:44.141Z,13.90
2022-12-06T07:54:10.435Z,10.98
2022-12-06T07:56:36.963Z,10.10
2022-12-06T07:59:03.347Z,13.02
2022-12-06T08:01:30.968Z,8.68
2022-12-06T08:03:59.500Z,10.27
2022-12-06T08:06:25.937Z,10.52
2022-12-06T08:08:52.219Z,10.63
2022-12-06T08:11:18.493Z,11.60
2022-12-06T08:13:44.777Z,10.57
2022-12-06T08:16:15.151Z,10.23
2022-12-06T08:18:41.991Z,13.40
2022-12-06T08:21:08.684Z,10.90
2022-12-06T08:23:35.707Z,10.68
2022-12-06T08:26:03.732Z,10.48
2022-12-06T08:28:30.782Z,13.02
2022-12-06T08:31:02.755Z,10.00
2022-12-06T08:33:29.478Z,13.45
2022-12-06T08:35:55.753Z,11.27
2022-12-06T08:38:22.095Z,10.80
2022-12-06T08:40:48.364Z,13.38
2022-12-06T08:43:14.701Z,11.05
2022-12-06T08:45:41.271Z,12.95
2022-12-06T08:48:07.687Z,10.50
2022-12-06T08:50:34.044Z,12.95
2022-12-06T08:53:00.427Z,14.57
2022-12-06T08:55:26.880Z,12.98
2022-12-06T08:57:53.346Z,9.77
2022-12-06T09:00:20.143Z,15.00
2022-12-06T09:02:46.531Z,11.43
2022-12-06T09:05:12.827Z,8.85
2022-12-06T09:07:39.195Z,12.10
2022-12-06T09:10:05.728Z,10.90
2022-12-06T09:12:32.129Z,13.15
2022-12-06T09:14:58.516Z,9.30
2022-12-06T09:17:24.787Z,8.35
2022-12-06T09:19:51.304Z,8.52
2022-12-06T09:22:17.640Z,10.15
2022-12-06T09:24:43.894Z,11.02
2022-12-06T09:27:10.172Z,8.82
2022-12-06T09:29:40.528Z,8.60
2022-12-06T09:32:07.316Z,9.98
2022-12-06T09:34:33.624Z,9.43
2022-12-06T09:37:06.572Z,9.45
2022-12-06T09:39:40.357Z,8.85
2022-12-06T09:42:12.820Z,8.90
2022-12-06T09:44:54.532Z,11.63
2022-12-06T09:47:20.883Z,8.57
2022-12-06T09:50:08.523Z,8.88
2022-12-06T09:52:54.077Z,8.48
2022-12-06T09:55:42.661Z,10.60
2022-12-06T09:58:27.474Z,9.10
2022-12-06T10:00:59.972Z,11.00
2022-12-06T10:03:32.354Z,9.77
2022-12-06T10:06:01.608Z,10.70
2022-12-06T10:08:34.254Z,8.05
2022-12-06T10:11:08.513Z,9.05
2022-12-06T10:13:54.713Z,12.50
2022-12-06T10:16:35.004Z,8.20
2022-12-06T10:19:20.046Z,9.65
2022-12-06T10:21:49.374Z,11.25
2022-12-06T10:24:15.690Z,10.57
2022-12-06T10:26:48.622Z,9.35
2022-12-06T10:29:20.356Z,9.68
2022-12-06T10:31:57.846Z,9.80
2022-12-06T10:34:27.273Z,12.95
2022-12-06T10:37:20.175Z,14.60
2022-12-06T10:39:52.020Z,9.73
2022-12-06T10:42:39.520Z,14.68
2022-12-06T10:45:43.445Z,14.45
2022-12-06T10:48:15.549Z,14.45
2022-12-06T10:50:42.330Z,14.88
2022-12-06T10:53:14.551Z,12.52
2022-12-06T10:55:40.805Z,13.25
2022-12-06T10:58:16.114Z,13.23
2022-12-06T11:00:51.650Z,19.02
2022-12-06T11:03:24.096Z,12.10
2022-12-06T11:05:54.191Z,13.60
2022-12-06T11:08:23.610Z,11.63
2022-12-06T11:10:50.154Z,10.75
2022-12-06T11:13:35.308Z,12.15
2022-12-06T11:16:13.908Z,11.13
2022-12-06T11:18:40.592Z,11.43
2022-12-06T11:21:21.883Z,12.73
2022-12-06T11:24:11.439Z,15.32
2022-12-06T11:26:46.766Z,14.00
2022-12-06T11:29:14.370Z,14.32
2022-12-06T11:31:51.655Z,12.48
2022-12-06T11:34:29.187Z,10.18
2022-12-06T11:37:00.203Z,9.30
2022-12-06T11:39:27.206Z,8.93
2022-12-06T11:41:55.421Z,10.45
2022-12-06T11:44:29.345Z,11.15
2022-12-06T11:46:57.635Z,9.90
2022-12-06T11:49:32.367Z,11.90
2022-12-06T11:52:00.633Z,10.82
2022-12-06T11:54:29.568Z,12.75
2022-12-06T11:56:58.715Z,10.30
2022-12-06T11:59:26.631Z,11.23
2022-12-06T12:01:54.325Z,13.18
2022-12-06T12:04:25.277Z,12.52
2022-12-06T12:06:54.335Z,12.88
2022-12-06T12:09:21.108Z,13.50
2022-12-06T12:11:54.741Z,16.90
2022-12-06T12:14:28.008Z,13.13
2022-12-06T12:16:58.303Z,11.80
2022-12-06T12:19:43.341Z,13.45
2022-12-06T12:22:28.702Z,12.30
2022-12-06T12:27:45.168Z,14.23
2022-12-06T12:30:17.300Z,12.57
2022-12-06T12:32:44.125Z,13.35
2022-12-06T12:35:25.195Z,11.68
2022-12-06T12:37:59.364Z,17.35
2022-12-06T12:40:27.297Z,12.73
2022-12-06T12:42:58.640Z,17.38
2022-12-06T12:45:27.650Z,18.55
2022-12-06T12:48:01.742Z,13.90
2022-12-06T12:50:28.959Z,16.85
2022-12-06T12:52:55.627Z,14.15
2022-12-06T12:55:23.687Z,19.60
2022-12-06T12:57:53.988Z,13.55
2022-12-06T13:00:20.375Z,17.58
2022-12-06T13:02:57.581Z,16.00
2022-12-06T13:05:34.342Z,15.05
2022-12-06T13:08:06.192Z,18.75
2022-12-06T13:10:37.217Z,17.42
2022-12-06T13:13:05.139Z,16.05
2022-12-06T13:15:34.171Z,19.75
2022-12-06T13:18:10.378Z,18.13
2022-12-06T13:20:36.938Z,20.35
2022-12-06T13:23:08.333Z,18.27
2022-12-06T13:25:35.892Z,21.42
2022-12-06T13:28:05.803Z,20.13
2022-12-06T13:30:34.329Z,24.58
2022-12-06T13:33:00.650Z,19.38
2022-12-06T13:35:32.259Z,18.27
2022-12-06T13:38:00.585Z,20.45
2022-12-06T13:40:32.741Z,30.42
2022-12-06T13:42:59.856Z,20.95
2022-12-06T13:45:39.045Z,18.05
2022-12-06T13:48:23.885Z,21.55
2022-12-06T13:50:50.283Z,20.10
2022-12-06T13:53:17.220Z,28.25
2022-12-06T13:56:01.961Z,24.58
2022-12-06T13:58:28.273Z,25.80
2022-12-06T14:00:56.523Z,25.92
2022-12-06T14:03:25.619Z,18.05
2022-12-06T14:08:41.802Z,15.07
2022-12-06T14:11:17.325Z,19.45
2022-12-06T14:13:44.868Z,18.98
2022-12-06T14:16:16.684Z,17.10
2022-12-06T14:18:43.129Z,15.10
2022-12-06T14:21:18.957Z,17.75
2022-12-06T14:23:46.169Z,23.13
2022-12-06T14:26:21.791Z,16.65
2022-12-06T14:28:49.056Z,19.58
2022-12-06T14:31:23.549Z,18.42
2022-12-06T14:33:50.265Z,20.15
2022-12-06T14:36:18.320Z,19.27
2022-12-06T14:38:50.778Z,19.13
2022-12-06T14:41:38.645Z,16.42
2022-12-06T14:44:13.637Z,13.18
2022-12-06T14:46:40.841Z,18.50
2022-12-06T14:49:28.845Z,15.30
2022-12-06T14:51:55.228Z,19.05
2022-12-06T14:54:27.647Z,18.77
2022-12-06T14:56:54.017Z,18.70
2022-12-06T14:59:45.097Z,17.92
2022-12-06T15:02:24.988Z,23.60
2022-12-06T15:04:51.735Z,19.90
2022-12-06T15:07:37.073Z,22.63
2022-12-06T15:10:15.473Z,24.52
2022-12-06T15:12:57.240Z,22.08
2022-12-06T15:15:37.700Z,23.75
2022-12-06T15:20:30.362Z,17.48
2022-12-06T15:22:56.680Z,23.13
2022-12-06T15:25:23.014Z,17.45
2022-12-06T15:27:49.250Z,20.50
2022-12-06T15:30:15.590Z,22.15
2022-12-06T15:32:41.888Z,21.83
2022-12-06T15:35:12.178Z,20.85
2022-12-06T15:37:40.079Z,21.73
2022-12-06T15:40:07.512Z,23.50
2022-12-06T15:42:33.796Z,17.80
2022-12-06T15:45:01.155Z,20.38
2022-12-06T15:47:27.634Z,23.40
2022-12-06T15:49:58.313Z,21.27
2022-12-06T15:52:24.869Z,21.67
2022-12-06T15:54:51.185Z,21.48
2022-12-06T15:57:17.520Z,19.15
2022-12-06T15:59:43.820Z,21.23
2022-12-06T16:02:15.489Z,19.75
2022-12-06T16:04:42.008Z,18.15
2022-12-06T16:07:08.259Z,21.40
2022-12-06T16:09:34.513Z,18.85
2022-12-06T16:12:00.847Z,17.70
2022-12-06T16:14:27.174Z,17.40
2022-12-06T16:16:53.493Z,21.25
2022-12-06T16:19:19.833Z,20.77
2022-12-06T16:21:53.314Z,16.60
2022-12-06T16:24:19.746Z,17.92
2022-12-06T16:26:46.292Z,14.07
2022-12-06T16:29:16.996Z,16.75
2022-12-06T16:31:43.814Z,15.50
2022-12-06T16:34:10.463Z,16.45
2022-12-06T16:36:53.007Z,18.45
2022-12-06T16:39:19.409Z,14.55
2022-12-06T16:41:45.686Z,14.48
2022-12-06T16:44:12.477Z,14.00
2022-12-06T16:46:39.008Z,14.07
2022-12-06T16:49:43.647Z,17.45
2022-12-06T16:51:53.501Z,16.25
2022-12-06T16:54:19.848Z,16.67
2022-12-06T16:56:46.189Z,18.17
2022-12-06T16:59:16.214Z,17.58
2022-12-06T17:01:49.884Z,17.08
2022-12-06T17:04:16.229Z,13.18
2022-12-06T17:06:42.772Z,14.82
2022-12-06T17:09:09.886Z,19.58
2022-12-06T17:11:54.696Z,13.52
2022-12-06T17:14:22.337Z,16.80
2022-12-06T17:16:48.952Z,16.20
2022-12-06T17:19:18.189Z,14.18
2022-12-06T17:21:45.041Z,14.23
2022-12-06T17:24:12.194Z,16.17
2022-12-06T17:26:38.531Z,15.07
2022-12-06T17:29:05.581Z,12.90
2022-12-06T17:31:32.091Z,10.98
2022-12-06T17:33:59.256Z,11.77
2022-12-06T17:36:25.973Z,9.55
2022-12-06T17:38:52.766Z,11.10
2022-12-06T17:41:39.078Z,10.80
2022-12-06T17:44:06.398Z,13.77
2022-12-06T17:46:33.002Z,14.85
2022-12-06T17:48:59.691Z,10.20
2022-12-06T17:51:27.136Z,12.15
2022-12-06T17:53:53.647Z,12.77
2022-12-06T17:56:23.156Z,13.52
2022-12-06T17:58:49.742Z,12.40
2022-12-06T18:01:16.158Z,11.73
2022-12-06T18:03:42.524Z,12.32
2022-12-06T18:06:10.510Z,10.23
2022-12-06T18:08:36.961Z,10.85
2022-12-06T18:11:03.348Z,13.68
2022-12-06T18:13:29.790Z,10.85
2022-12-06T18:15:56.232Z,13.35
2022-12-06T18:18:22.597Z,15.80
2022-12-06T18:20:48.953Z,15.95
2022-12-06T18:23:15.257Z,12.23
2022-12-06T18:25:42.057Z,13.80
2022-12-06T18:28:08.426Z,14.35
2022-12-06T18:30:34.822Z,17.13
2022-12-06T18:33:01.679Z,15.05
2022-12-06T18:35:27.976Z,15.48
2022-12-06T18:37:56.270Z,15.93
2022-12-06T18:40:22.858Z,17.17
2022-12-06T18:42:49.161Z,13.45
2022-12-06T18:45:15.658Z,14.23
2022-12-06T18:47:41.969Z,15.77
2022-12-06T18:50:10.347Z,14.68
2022-12-06T18:52:36.899Z,15.52
2022-12-06T18:55:03.583Z,17.17
2022-12-06T18:57:32.193Z,18.00
2022-12-06T18:59:58.763Z,21.05
2022-12-06T19:02:26.159Z,17.30
2022-12-06T19:04:52.550Z,19.63
2022-12-06T19:07:23.557Z,18.00
2022-12-06T19:09:51.389Z,17.13
2022-12-06T19:12:17.858Z,21.92
2022-12-06T19:14:44.195Z,19.70
2022-12-06T19:17:11.305Z,22.13
2022-12-06T19:19:37.820Z,29.73
2022-12-06T19:22:04.304Z,25.50
2022-12-06T19:24:30.566Z,20.95
2022-12-06T19:26:59.682Z,24.17
2022-12-06T19:29:26.847Z,17.48
2022-12-06T19:31:53.136Z,19.52
2022-12-06T19:34:20.534Z,20.65
2022-12-06T19:36:48.367Z,22.23
2022-12-06T19:39:14.628Z,22.05
2022-12-06T19:41:59.306Z,20.00
2022-12-06T19:44:26.231Z,17.83
2022-12-06T19:46:52.715Z,21.77
2022-12-06T19:49:20.122Z,16.90
2022-12-06T19:51:47.014Z,16.75
2022-12-06T19:54:32.446Z,25.38
2022-12-06T19:56:59.523Z,20.17
2022-12-06T19:59:27.407Z,20.45
2022-12-06T20:01:54.256Z,16.75
2022-12-06T20:04:22.562Z,18.70
2022-12-06T20:06:49.569Z,17.92
2022-12-06T20:09:16.997Z,18.42
2022-12-06T20:12:02.128Z,20.92
2022-12-06T20:14:29.818Z,19.42
2022-12-06T20:16:56.229Z,18.23
2022-12-06T20:19:22.572Z,22.55
2022-12-06T20:21:49.132Z,20.60
2022-12-06T20:24:19.676Z,20.08
2022-12-06T20:29:12.837Z,19.15
2022-12-06T20:31:39.276Z,21.35
2022-12-06T20:34:10.151Z,29.42
2022-12-06T20:36:39.758Z,33.63
2022-12-06T20:39:06.038Z,34.58
2022-12-06T20:41:35.068Z,32.45
2022-12-06T20:44:02.099Z,26.98
2022-12-06T20:46:29.700Z,24.15
2022-12-06T20:48:56.865Z,32.40
2022-12-06T20:51:27.706Z,24.50
2022-12-06T20:53:57.263Z,22.83
2022-12-06T20:56:26.606Z,26.70
2022-12-06T20:58:54.446Z,24.35
2022-12-06T21:01:21.935Z,24.70
2022-12-06T21:03:48.680Z,25.27
2022-12-06T21:06:15.642Z,26.55
2022-12-06T21:08:42.000Z,28.50
2022-12-06T21:11:24.503Z,22.38
2022-12-06T21:13:55.024Z,21.25
2022-12-06T21:16:31.088Z,23.75
2022-12-06T21:19:05.097Z,22.65
2022-12-06T21:21:34.224Z,22.77
2022-12-06T21:24:01.221Z,23.70
2022-12-06T21:26:28.184Z,23.30
2022-12-06T21:28:54.646Z,24.23
2022-12-06T21:31:25.227Z,22.73
2022-12-06T21:33:51.545Z,24.52
2022-12-06T21:36:18.065Z,24.42
2022-12-06T21:38:44.376Z,18.08
2022-12-06T21:41:12.124Z,24.73
2022-12-06T21:43:38.935Z,26.85
2022-12-06T21:46:10.427Z,23.73
2022-12-06T21:48:36.867Z,21.00
2022-12-06T21:51:04.772Z,21.50
2022-12-06T21:53:31.161Z,19.40
2022-12-06T21:55:57.729Z,22.23
2022-12-06T21:58:24.185Z,24.05
2022-12-06T22:00:50.620Z,24.23
2022-12-06T22:03:22.693Z,21.13
2022-12-06T22:05:49.378Z,21.70
2022-12-06T22:08:15.802Z,19.88
2022-12-06T22:10:42.539Z,26.27
2022-12-06T22:13:09.030Z,22.88
2022-12-06T22:15:35.398Z,23.20
2022-12-06T22:18:02.061Z,26.90
2022-12-06T22:20:28.345Z,27.08
2022-12-06T22:22:54.621Z,22.95
2022-12-06T22:25:20.973Z,30.02
2022-12-06T22:27:47.299Z,24.73
2022-12-06T22:30:13.663Z,23.67
2022-12-06T22:32:39.971Z,25.52
2022-12-06T22:35:06.746Z,25.48
2022-12-06T22:37:33.026Z,23.80
2022-12-06T22:39:59.691Z,25.00
2022-12-06T22:42:26.308Z,26.73
2022-12-06T22:44:52.624Z,26.33
2022-12-06T22:47:18.989Z,22.63
2022-12-06T22:49:45.288Z,24.63
2022-12-06T22:52:11.568Z,20.70
2022-12-06T22:54:37.879Z,19.30
2022-12-06T22:57:04.173Z,23.23
2022-12-06T22:59:30.493Z,23.40
2022-12-06T23:01:56.842Z,26.27
2022-12-06T23:04:23.144Z,24.10
2022-12-06T23:06:49.528Z,19.83
2022-12-06T23:09:16.569Z,21.77
2022-12-06T23:11:43.045Z,20.80
2022-12-06T23:14:09.608Z,20.85
2022-12-06T23:16:36.077Z,20.27
2022-12-06T23:19:03.585Z,18.75
2022-12-06T23:21:30.873Z,16.83
2022-12-06T23:23:58.766Z,20.33
2022-12-06T23:26:26.409Z,21.75
2022-12-06T23:28:53.078Z,18.42
2022-12-06T23:31:23.269Z,21.85
2022-12-06T23:33:52.630Z,23.52
2022-12-06T23:36:20.881Z,19.40
2022-12-06T23:38:47.607Z,24.75
2022-12-06T23:41:15.072Z,19.02
2022-12-06T23:43:42.033Z,27.75
2022-12-06T23:46:10.026Z,22.85
2022-12-06T23:48:36.843Z,25.38
2022-12-06T23:51:04.361Z,21.48
2022-12-06T23:53:31.093Z,22.70
2022-12-06T23:56:05.681Z,24.67
2022-12-06T23:58:31.981Z,26.77
